• Join FlightAware (Why Join?)
  • Login
  • US Flag 
07:47AM EDT


 

Airport Tracker/Info


-or-


 

Live Flight TrackerFlight Track Log ✈ GJS3707 ✈ 11-Jul-2013 ✈ KORD - KBOI

Flight Track Log - Related Links

Times and Time Zones

All times are in EDT time to prevent confusion due to time zone crossing. See the GJS3707 flight status page for this flight to view local times or setup timezone preferences in your user account.

Time Position Orientation Groundspeed Altitude Reporting Facility
EDT Latitude Longitude Course Direction KTS MPH feet Rate Location/Type
11:05AM 42.0000 -87.9667 261° West 185 213 2,000  Level Chicago TRACON
11:06AM 42.0000 -88.0500 270° West 226 260 3,900 1,740 Climbing Chicago TRACON
11:07AM 41.9833 -88.1333 255° West 274 315 5,600 2,280 Climbing Chicago TRACON
11:09AM 41.9775 -88.2833 267° West 283 326 9,300 2,580 Climbing Chicago Center
11:10AM 41.9667 -88.3875 262° West 285 328 11,800 1,920 Climbing Chicago Center
11:11AM 41.8799 -88.7799 261° West  Level FlightAware Approximate
11:11AM 41.9553 -88.5011 262° West 300 345 13,400  Level Chicago Center
11:12AM 41.9403 -88.6211 260° West 322 371 15,000 720 Climbing Chicago Center
11:13AM 41.9256 -88.7414 261° West 328 377 15,000 720 Level Chicago Center
11:14AM 41.9100 -88.8850 262° West 327 376 16,500 1,500 Climbing Chicago Center
11:15AM 41.8958 -89.0078 261° West 334 384 18,100 1,740 Climbing Chicago Center
11:16AM 41.8811 -89.1336 261° West 342 394 20,200 1,740 Climbing Chicago Center
11:17AM 41.8669 -89.2597 261° West 345 397 21,700 1,440 Climbing Chicago Center
11:18AM 41.8472 -89.4158 260° West 355 409 23,200 1,320 Climbing Chicago Center
11:19AM 41.8067 -89.5444 247° West 380 437 24,500 1,200 Climbing Chicago Center
11:20AM 41.7611 -89.6553 241° Southwest 390 449 25,700 1,200 Climbing Chicago Center
11:21AM 41.7069 -89.8136 245° Southwest 394 453 27,100 1,140 Climbing Chicago Center
11:22AM 41.6956 -89.9550 264° West 387 445 28,100 900 Climbing Chicago Center
11:23AM 41.6828 -90.1000 263° West 392 451 29,000 720 Climbing Chicago Center
11:24AM 41.6703 -90.2469 264° West 397 457 29,600 540 Climbing Chicago Center
11:25AM 41.6567 -90.4033 263° West 418 481 30,200 540 Climbing Chicago Center
11:26AM 41.6431 -90.5575 263° West 419 482 30,800 660 Climbing Chicago Center
11:27AM 41.6269 -90.7308 263° West 425 489 31,600 900 Climbing Chicago Center
11:28AM 41.6136 -90.8858 263° West 424 488 32,700 960 Climbing Chicago Center
11:29AM 41.6031 -91.0361 265° West 414 476 33,700 840 Climbing Chicago Center
11:30AM 41.6175 -91.2100 276° West 396 456 34,500 900 Climbing Chicago Center
11:31AM 41.6286 -91.3528 276° West 391 450 35,600 720 Climbing Chicago Center
11:32AM 41.6386 -91.4931 275° West 384 442 36,000 180 Climbing Chicago Center
11:33AM 41.6483 -91.6367 275° West 388 447 36,000  Level Chicago Center
11:34AM 41.6592 -91.7819 276° West 394 453 36,000  Level Chicago Center
11:35AM 41.6722 -91.9569 276° West 396 456 36,000  Level Chicago Center
11:37AM 41.6819 -92.1019 275° West 395 455 36,000  Level Chicago Center
11:38AM 41.6917 -92.2483 275° West 397 457 36,000  Level Chicago Center
11:39AM 41.7022 -92.3931 276° West 396 456 36,000  Level Chicago Center
11:40AM 41.7108 -92.5381 275° West 394 453 36,000  Level Chicago Center
11:40AM 41.7186 -92.6558 275° West 395 455 36,000  Level Minneapolis Center
11:41AM 41.7292 -92.8136 275° West 396 456 36,000  Level Minneapolis Center
11:42AM 41.7372 -92.9592 274° West 397 457 36,000  Level Minneapolis Center
11:44AM 41.7475 -93.1339 275° West 397 457 36,000  Level Minneapolis Center
11:45AM 41.7569 -93.2781 275° West 395 455 36,000  Level Minneapolis Center
11:46AM 41.7644 -93.4244 274° West 397 457 36,000  Level Minneapolis Center
11:47AM 41.7731 -93.5661 275° West 389 448 36,000  Level Minneapolis Center
11:48AM 41.7811 -93.7119 274° West 396 456 36,000  Level Minneapolis Center
11:49AM 41.7911 -93.8753 275° West 392 451 36,000  Level Minneapolis Center
11:50AM 41.7992 -94.0194 274° West 389 448 36,000  Level Minneapolis Center
11:51AM 41.8058 -94.1661 274° West 393 452 36,000  Level Minneapolis Center
11:52AM 41.8133 -94.3119 274° West 394 453 36,000  Level Minneapolis Center
11:53AM 41.8206 -94.4886 273° West 396 456 36,000  Level Minneapolis Center
11:54AM 41.8269 -94.6344 273° West 394 453 36,000  Level Minneapolis Center
11:55AM 41.8350 -94.7817 274° West 398 458 36,000  Level Minneapolis Center
11:56AM 41.8425 -94.9581 273° West 397 457 36,000  Level Minneapolis Center
11:57AM 41.8492 -95.1053 274° West 398 458 36,000  Level Minneapolis Center
11:58AM 41.8569 -95.2828 273° West 399 459 36,000  Level Minneapolis Center
11:59AM 41.8628 -95.4275 273° West 394 453 36,000  Level Minneapolis Center
12:00PM 41.8675 -95.5733 273° West 393 452 36,000  Level Minneapolis Center
12:01PM 41.8733 -95.7197 273° West 395 455 36,000  Level Minneapolis Center
12:02PM 41.8797 -95.8669 273° West 399 459 36,000  Level Minneapolis Center
12:03PM 41.8850 -96.0444 272° West 399 459 36,000  Level Minneapolis Center
12:04PM 41.8894 -96.1931 272° West 402 463 36,000 480 Level Minneapolis Center
12:05PM 41.8947 -96.3419 273° West 402 463 37,000 780 Climbing Minneapolis Center
12:06PM 41.8983 -96.4869 272° West 393 452 37,700 480 Climbing Minneapolis Center
12:08PM 41.9028 -96.6306 272° West 390 449 38,000 120 Climbing Minneapolis Center
12:09PM 41.9072 -96.7756 272° West 390 449 38,000  Level Minneapolis Center
12:10PM 41.9108 -96.9525 272° West 395 455 38,000  Level Minneapolis Center
12:11PM 41.9158 -97.1000 273° West 396 456 38,000  Level Minneapolis Center
12:12PM 41.9181 -97.2489 271° West 399 459 38,000  Level Minneapolis Center
12:13PM 41.9217 -97.3969 272° West 399 459 38,000  Level Minneapolis Center
12:14PM 41.9253 -97.5475 272° West 402 463 38,000  Level Minneapolis Center
12:15PM 41.9286 -97.7272 271° West 403 464 38,000  Level Minneapolis Center
12:16PM 41.9325 -97.8794 272° West 407 468 38,000  Level Minneapolis Center
12:17PM 41.9342 -98.0317 271° West 409 471 38,000  Level Minneapolis Center
12:18PM 41.9372 -98.1883 272° West 409 471 38,000  Level Minneapolis Center
12:19PM 41.9392 -98.3408 271° West 410 472 38,000  Level Minneapolis Center
12:20PM 41.9411 -98.4944 271° West 412 474 38,000  Level Minneapolis Center
12:21PM 41.9433 -98.6475 271° West 412 474 38,000  Level Minneapolis Center
12:22PM 41.9453 -98.8317 271° West 413 475 38,000  Level Minneapolis Center
12:23PM 41.9461 -98.9856 270° West 413 475 38,000  Level Minneapolis Center
12:24PM 41.9467 -99.1369 270° West 411 473 38,000  Level Denver Center
12:25PM 41.9481 -99.2908 271° West 412 474 38,000  Level Denver Center
12:26PM 41.9486 -99.4436 270° West 410 472 38,000  Level Denver Center
12:27PM 41.9478 -99.5975 270° West 412 474 38,000  Level Denver Center
12:28PM 41.9486 -99.7739 270° West 415 478 38,000  Level Denver Center
12:29PM 41.9494 -99.9208 270° West 413 475 38,000  Level Denver Center
12:30PM 41.9489 -100.0933 270° West 415 478 38,000  Level Denver Center
12:31PM 41.9492 -100.2392 270° West 412 474 38,000  Level Denver Center
12:32PM 41.9478 -100.4128 269° West 416 479 38,000  Level Denver Center
12:33PM 41.9475 -100.5614 270° West 417 480 38,000  Level Denver Center
12:34PM 41.9461 -100.7339 269° West 415 478 38,000  Level Denver Center
12:35PM 41.9461 -100.8819 270° West 415 478 38,000  Level Denver Center
12:36PM 41.9444 -101.0553 269° West 415 478 38,000  Level Denver Center
12:37PM 41.9431 -101.2000 269° West 410 472 38,000  Level Denver Center
12:38PM 41.9414 -101.3700 269° West 409 471 38,000  Level Denver Center
12:40PM 41.9383 -101.5156 268° West 409 471 38,000  Level Denver Center
12:41PM 41.9358 -101.6825 269° West 403 464 38,000  Level Denver Center
12:42PM 41.9339 -101.8272 269° West 406 467 38,000  Level Denver Center
12:43PM 41.9306 -101.9964 269° West 408 470 38,000  Level Denver Center
12:44PM 41.9278 -102.1411 269° West 406 467 38,000  Level Denver Center
12:45PM 41.9236 -102.3058 268° West 399 459 38,000  Level Denver Center
12:46PM 41.9200 -102.4511 268° West 404 465 38,000  Level Denver Center
12:47PM 41.9178 -102.6203 269° West 405 466 38,000  Level Denver Center
12:48PM 41.9136 -102.7647 268° West 405 466 38,000  Level Denver Center
12:49PM 41.9100 -102.9086 268° West 404 465 38,000  Level Denver Center
12:50PM 41.9064 -103.0778 268° West 405 466 38,000  Level Denver Center
12:51PM 41.9019 -103.2222 268° West 404 465 38,000  Level Denver Center
12:52PM 41.8969 -103.3900 268° West 404 465 38,000  Level Denver Center
12:53PM 41.8922 -103.5372 268° West 411 473 38,000  Level Denver Center
12:54PM 41.8875 -103.7075 268° West 410 472 38,000  Level Denver Center
12:55PM 41.8817 -103.8539 267° West 411 473 38,000  Level Denver Center
12:56PM 41.8756 -104.0250 267° West 410 472 38,000  Level Denver Center
12:57PM 41.8700 -104.1728 267° West 413 475 38,000  Level Denver Center
12:58PM 41.8644 -104.3447 268° West 414 476 38,000  Level Denver Center
12:59PM 41.8583 -104.4908 267° West 410 472 38,000  Level Denver Center
01:00PM 41.8522 -104.6383 267° West 411 473 38,000  Level Denver Center
01:01PM 41.8453 -104.8111 267° West 414 476 38,000  Level Denver Center
01:02PM 41.8389 -104.9586 267° West 413 475 38,000  Level Denver Center
01:03PM 41.8311 -105.1317 267° West 415 478 38,000  Level Denver Center
01:04PM 41.8247 -105.2786 267° West 413 475 38,000  Level Denver Center
01:05PM 41.8172 -105.4494 267° West 412 474 38,000  Level Denver Center
01:06PM 41.8089 -105.5978 266° West 414 476 38,000  Level Denver Center
01:07PM 41.8014 -105.7719 267° West 419 482 38,000  Level Denver Center
01:08PM 41.7931 -105.9169 266° West 414 476 38,000  Level Denver Center
01:10PM 41.7828 -106.0894 265° West 416 479 38,000  Level Denver Center
01:11PM 41.7744 -106.2628 266° West 416 479 38,000  Level Denver Center
01:12PM 41.7647 -106.4361 266° West 417 480 38,000  Level Denver Center
01:13PM 41.7583 -106.5797 267° West 422 486 38,000  Level Denver Center
01:14PM 41.7478 -106.7517 265° West 416 479 38,000  Level Denver Center
01:15PM 41.7389 -106.8992 265° West 416 479 38,000  Level Denver Center
01:16PM 41.7281 -107.0719 265° West 417 480 38,000  Level Denver Center
01:17PM 41.7186 -107.2194 265° West 416 479 38,000  Level Denver Center
01:18PM 41.7081 -107.3900 265° West 413 475 38,000  Level Denver Center
01:20PM 41.6883 -107.7058 265° West 411 473 38,000  Level Denver Center
01:21PM 41.6769 -107.8511 264° West 411 473 38,000  Level Denver Center
01:22PM 41.6650 -108.0175 265° West 405 466 38,000  Level Denver Center
01:23PM 41.6558 -108.1611 265° West 404 465 38,000  Level Denver Center
01:24PM 41.6431 -108.3264 264° West 402 463 38,000  Level Denver Center
01:25PM 41.6331 -108.4672 265° West 399 459 38,000  Level Denver Center
01:26PM 41.6208 -108.6308 264° West 397 457 38,000  Level Denver Center
01:27PM 41.6106 -108.7728 265° West 398 458 38,000  Level Salt Lake Center
01:28PM 41.5986 -108.9342 264° West 394 453 38,000  Level Salt Lake Center
01:29PM 41.6217 -109.0964 281° West 410 472 38,000  Level Salt Lake Center
01:30PM 41.6722 -109.2275 297° West 416 479 38,000  Level Salt Lake Center
01:31PM 41.7272 -109.3806 296° West 416 479 38,000  Level Salt Lake Center
01:33PM 41.7753 -109.5117 296° West 413 475 38,000  Level Salt Lake Center
01:34PM 41.8308 -109.6656 296° West 413 475 38,000  Level Salt Lake Center
01:35PM 41.8794 -109.7972 296° West 413 475 38,000  Level Salt Lake Center
01:36PM 41.9281 -109.9306 296° West 414 476 38,000  Level Salt Lake Center
01:37PM 41.9842 -110.0861 296° West 416 479 38,000  Level Salt Lake Center
01:38PM 42.0328 -110.2208 296° West 417 480 38,000  Level Salt Lake Center
01:39PM 42.0894 -110.3778 296° West 418 481 38,000  Level Salt Lake Center
01:40PM 42.1381 -110.5125 296° West 418 481 38,000  Level Salt Lake Center
01:41PM 42.1942 -110.6711 296° West 420 483 38,000  Level Salt Lake Center
01:42PM 42.2428 -110.8058 296° West 418 481 38,000  Level Salt Lake Center
01:43PM 42.2983 -110.9661 295° West 422 486 38,000  Level Salt Lake Center
01:44PM 42.3458 -111.1022 295° West 420 483 38,000  Level Salt Lake Center
01:45PM 42.4008 -111.2608 295° West 418 481 38,000  Level Salt Lake Center
01:46PM 42.4483 -111.3983 295° West 421 484 38,000  Level Salt Lake Center
01:47PM 42.5033 -111.5581 295° West 420 483 38,000  Level Salt Lake Center
01:48PM 42.5489 -111.6908 295° West 417 480 38,000  Level Salt Lake Center
01:49PM 42.6028 -111.8503 295° West 416 479 38,000  Level Salt Lake Center
01:51PM 42.7033 -112.1467 295° West 415 478 38,000  Level Salt Lake Center
01:52PM 42.7483 -112.2828 294° West 413 475 38,000  Level Salt Lake Center
01:53PM 42.8017 -112.4411 295° West 413 475 38,000  Level Salt Lake Center
01:54PM 42.8467 -112.5797 294° West 415 478 38,000  Level Salt Lake Center
01:55PM 42.8856 -112.7183 291° West 411 473 38,000  Level Salt Lake Center
01:56PM 42.9192 -112.8844 285° West 407 468 38,000  Level Salt Lake Center
01:57PM 42.9486 -113.0264 286° West 407 468 38,000  Level Salt Lake Center
01:58PM 42.9833 -113.1925 286° West 407 468 38,000  Level Salt Lake Center
01:59PM 43.0122 -113.3342 286° West 405 466 38,000  Level Salt Lake Center
02:00PM 43.0464 -113.5008 286° West 406 467 38,000  Level Salt Lake Center
02:01PM 43.0756 -113.6456 285° West 406 467 38,000  Level Salt Lake Center
02:02PM 43.1083 -113.8106 285° West 403 464 38,000 -300 Level Salt Lake Center
02:04PM 43.1375 -113.9569 285° West 407 468 37,500 -780 Descending Salt Lake Center
02:05PM 43.1689 -114.1139 285° West 410 472 36,500 -960 Descending Salt Lake Center
02:06PM 43.1958 -114.2569 285° West 403 464 35,600 -1,200 Descending Salt Lake Center
02:07PM 43.2278 -114.4236 285° West 405 466 34,100 -1,920 Descending Salt Lake Center
02:08PM 43.2558 -114.5714 285° West 417 480 31,700 -2,940 Descending Salt Lake Center
02:09PM 43.2894 -114.7492 285° West 430 495 28,100 -3,180 Descending Salt Lake Center
02:10PM 43.3181 -114.9003 285° West 426 490 25,200 -3,000 Descending Salt Lake Center
02:11PM 43.3500 -115.0725 284° West 416 479 22,000 -2,820 Descending Salt Lake Center
02:12PM 43.3769 -115.2194 284° West 405 466 19,400 -2,520 Descending Salt Lake Center
02:13PM 43.4042 -115.3642 285° West 376 433 16,800 -2,400 Descending Salt Lake Center
02:14PM 43.4286 -115.5006 284° West 356 410 14,500 -1,740 Descending Salt Lake Center
02:15PM 43.4514 -115.6239 284° West 320 368 13,300 -1,140 Descending Salt Lake Center
02:16PM 43.4953 -115.7253 301° West 296 341 12,200 -1,140 Descending Salt Lake Center
02:17PM 43.5344 -115.8244 299° West 282 325 11,000 -1,260 Descending Salt Lake Center
02:18PM 43.5717 -115.9225 298° West 278 320 9,700 -1,260 Descending Salt Lake Center
02:19PM 43.6014 -116.0203 293° West 287 330 8,500 -840 Descending Salt Lake Center
02:20PM 43.6325 -116.1203 293° West 273 314 8,000 -1,020 Descending Salt Lake Center
02:22PM 43.6636 -116.2858 285° West 207 238 5,400 -1,260 Descending Salt Lake Center